sensor_id;sensor_type;location;lat;lon;timestamp;P1;durP1;ratioP1;P2;durP2;ratioP2
63926;SDS011;50103;47.960;21.712;2023-02-08T06:03:31;62.00;;;35.00;;
63926;SDS011;50103;47.960;21.712;2023-02-08T06:05:58;61.60;;;35.60;;
63926;SDS011;50103;47.960;21.712;2023-02-08T06:08:25;58.30;;;33.40;;
63926;SDS011;50103;47.960;21.712;2023-02-08T06:10:50;65.80;;;35.10;;
63926;SDS011;50103;47.960;21.712;2023-02-08T06:13:16;60.60;;;35.30;;
63926;SDS011;50103;47.960;21.712;2023-02-08T06:15:42;64.10;;;35.80;;
63926;SDS011;50103;47.960;21.712;2023-02-08T06:18:11;64.50;;;36.00;;
63926;SDS011;50103;47.960;21.712;2023-02-08T06:20:37;71.20;;;38.90;;
63926;SDS011;50103;47.960;21.712;2023-02-08T06:23:03;72.60;;;40.00;;
63926;SDS011;50103;47.960;21.712;2023-02-08T06:25:29;70.50;;;37.00;;
63926;SDS011;50103;47.960;21.712;2023-02-08T06:27:55;68.40;;;38.60;;
63926;SDS011;50103;47.960;21.712;2023-02-08T06:30:21;69.10;;;39.20;;
63926;SDS011;50103;47.960;21.712;2023-02-08T06:32:46;70.80;;;38.40;;
63926;SDS011;50103;47.960;21.712;2023-02-08T06:35:12;66.90;;;39.00;;
63926;SDS011;50103;47.960;21.712;2023-02-08T06:37:38;62.00;;;33.60;;
63926;SDS011;50103;47.960;21.712;2023-02-08T06:40:04;59.40;;;33.90;;
63926;SDS011;50103;47.960;21.712;2023-02-08T06:42:40;60.70;;;33.50;;
63926;SDS011;50103;47.960;21.712;2023-02-08T06:45:07;65.00;;;36.10;;
63926;SDS011;50103;47.960;21.712;2023-02-08T06:47:33;60.00;;;34.70;;
63926;SDS011;50103;47.960;21.712;2023-02-08T06:49:59;66.80;;;34.80;;
63926;SDS011;50103;47.960;21.712;2023-02-08T06:52:25;58.40;;;32.00;;
63926;SDS011;50103;47.960;21.712;2023-02-08T06:54:50;58.50;;;30.40;;
63926;SDS011;50103;47.960;21.712;2023-02-08T06:57:17;61.50;;;34.40;;
63926;SDS011;50103;47.960;21.712;2023-02-08T06:59:43;61.40;;;34.10;;
63926;SDS011;50103;47.960;21.712;2023-02-08T07:02:12;57.40;;;31.00;;
63926;SDS011;50103;47.960;21.712;2023-02-08T07:04:39;60.60;;;33.60;;
63926;SDS011;50103;47.960;21.712;2023-02-08T07:07:05;59.20;;;31.80;;
63926;SDS011;50103;47.960;21.712;2023-02-08T07:09:32;59.10;;;31.30;;
63926;SDS011;50103;47.960;21.712;2023-02-08T07:11:58;59.60;;;32.20;;
63926;SDS011;50103;47.960;21.712;2023-02-08T07:14:29;60.00;;;32.30;;
63926;SDS011;50103;47.960;21.712;2023-02-08T07:17:03;56.20;;;30.40;;
63926;SDS011;50103;47.960;21.712;2023-02-08T07:19:29;56.00;;;31.60;;
63926;SDS011;50103;47.960;21.712;2023-02-08T07:21:55;59.60;;;32.60;;
63926;SDS011;50103;47.960;21.712;2023-02-08T07:24:22;58.20;;;31.70;;
63926;SDS011;50103;47.960;21.712;2023-02-08T07:26:48;55.00;;;30.70;;
63926;SDS011;50103;47.960;21.712;2023-02-08T07:29:19;62.20;;;34.60;;
63926;SDS011;50103;47.960;21.712;2023-02-08T07:31:45;54.70;;;29.70;;
63926;SDS011;50103;47.960;21.712;2023-02-08T07:34:14;53.40;;;28.10;;
63926;SDS011;50103;47.960;21.712;2023-02-08T07:36:45;51.80;;;27.30;;
63926;SDS011;50103;47.960;21.712;2023-02-08T07:39:13;50.70;;;26.90;;
63926;SDS011;50103;47.960;21.712;2023-02-08T07:41:39;49.10;;;26.00;;
63926;SDS011;50103;47.960;21.712;2023-02-08T07:44:04;52.90;;;27.10;;
63926;SDS011;50103;47.960;21.712;2023-02-08T07:46:30;50.80;;;26.90;;
63926;SDS011;50103;47.960;21.712;2023-02-08T07:48:55;45.90;;;23.50;;
63926;SDS011;50103;47.960;21.712;2023-02-08T07:51:21;46.20;;;24.30;;
63926;SDS011;50103;47.960;21.712;2023-02-08T07:53:47;48.10;;;25.00;;
63926;SDS011;50103;47.960;21.712;2023-02-08T07:56:12;44.10;;;23.10;;
63926;SDS011;50103;47.960;21.712;2023-02-08T07:58:38;45.70;;;23.90;;
63926;SDS011;50103;47.960;21.712;2023-02-08T08:01:04;43.30;;;23.30;;
63926;SDS011;50103;47.960;21.712;2023-02-08T08:03:30;50.20;;;26.40;;
63926;SDS011;50103;47.960;21.712;2023-02-08T08:05:56;46.80;;;24.90;;
63926;SDS011;50103;47.960;21.712;2023-02-08T08:08:21;41.60;;;22.50;;
63926;SDS011;50103;47.960;21.712;2023-02-08T08:10:48;42.00;;;22.40;;
63926;SDS011;50103;47.960;21.712;2023-02-08T08:13:15;44.10;;;23.50;;
63926;SDS011;50103;47.960;21.712;2023-02-08T08:15:40;42.10;;;21.00;;
63926;SDS011;50103;47.960;21.712;2023-02-08T08:18:06;38.80;;;19.50;;
63926;SDS011;50103;47.960;21.712;2023-02-08T08:20:32;38.90;;;19.50;;
63926;SDS011;50103;47.960;21.712;2023-02-08T08:22:58;35.40;;;18.50;;
63926;SDS011;50103;47.960;21.712;2023-02-08T08:25:24;39.90;;;18.60;;
63926;SDS011;50103;47.960;21.712;2023-02-08T08:27:52;36.30;;;17.00;;
63926;SDS011;50103;47.960;21.712;2023-02-08T08:30:18;34.60;;;17.30;;
63926;SDS011;50103;47.960;21.712;2023-02-08T08:32:45;35.20;;;17.30;;
63926;SDS011;50103;47.960;21.712;2023-02-08T08:35:10;33.20;;;16.20;;
63926;SDS011;50103;47.960;21.712;2023-02-08T08:37:39;33.00;;;16.00;;
63926;SDS011;50103;47.960;21.712;2023-02-08T08:40:09;34.50;;;16.00;;
63926;SDS011;50103;47.960;21.712;2023-02-08T08:42:35;34.20;;;16.70;;
63926;SDS011;50103;47.960;21.712;2023-02-08T08:45:01;35.70;;;17.80;;
63926;SDS011;50103;47.960;21.712;2023-02-08T08:47:27;34.30;;;16.00;;
63926;SDS011;50103;47.960;21.712;2023-02-08T08:49:53;35.30;;;16.50;;
63926;SDS011;50103;47.960;21.712;2023-02-08T08:52:21;33.90;;;16.30;;
63926;SDS011;50103;47.960;21.712;2023-02-08T08:54:47;36.80;;;18.20;;
63926;SDS011;50103;47.960;21.712;2023-02-08T08:57:13;37.60;;;17.60;;
63926;SDS011;50103;47.960;21.712;2023-02-08T08:59:38;33.60;;;15.80;;
63926;SDS011;50103;47.960;21.712;2023-02-08T09:02:04;33.10;;;15.40;;
63926;SDS011;50103;47.960;21.712;2023-02-08T09:04:30;33.50;;;16.50;;
63926;SDS011;50103;47.960;21.712;2023-02-08T09:06:55;31.60;;;14.60;;
63926;SDS011;50103;47.960;21.712;2023-02-08T09:09:21;33.10;;;15.30;;
63926;SDS011;50103;47.960;21.712;2023-02-08T09:11:49;30.90;;;15.40;;
63926;SDS011;50103;47.960;21.712;2023-02-08T09:14:14;30.90;;;14.50;;
63926;SDS011;50103;47.960;21.712;2023-02-08T09:16:40;32.20;;;15.00;;
63926;SDS011;50103;47.960;21.712;2023-02-08T09:19:07;30.50;;;13.90;;
63926;SDS011;50103;47.960;21.712;2023-02-08T09:21:34;29.50;;;13.90;;
63926;SDS011;50103;47.960;21.712;2023-02-08T09:24:01;30.30;;;13.10;;
63926;SDS011;50103;47.960;21.712;2023-02-08T09:26:27;28.60;;;12.80;;
63926;SDS011;50103;47.960;21.712;2023-02-08T09:28:53;30.40;;;14.00;;
63926;SDS011;50103;47.960;21.712;2023-02-08T09:31:19;37.50;;;18.70;;
63926;SDS011;50103;47.960;21.712;2023-02-08T09:33:48;38.10;;;21.00;;
63926;SDS011;50103;47.960;21.712;2023-02-08T09:36:14;40.70;;;22.60;;
63926;SDS011;50103;47.960;21.712;2023-02-08T09:38:41;37.00;;;19.80;;
63926;SDS011;50103;47.960;21.712;2023-02-08T09:46:34;33.20;;;15.80;;
63926;SDS011;50103;47.960;21.712;2023-02-08T09:49:04;33.60;;;15.70;;
63926;SDS011;50103;47.960;21.712;2023-02-08T09:51:40;33.40;;;16.20;;
63926;SDS011;50103;47.960;21.712;2023-02-08T09:54:15;31.30;;;15.70;;
63926;SDS011;50103;47.960;21.712;2023-02-08T09:56:45;31.80;;;15.90;;
63926;SDS011;50103;47.960;21.712;2023-02-08T09:59:23;34.10;;;16.40;;
63926;SDS011;50103;47.960;21.712;2023-02-08T10:01:52;36.10;;;18.50;;
63926;SDS011;50103;47.960;21.712;2023-02-08T10:04:35;33.90;;;16.50;;
63926;SDS011;50103;47.960;21.712;2023-02-08T10:07:15;33.30;;;16.80;;
63926;SDS011;50103;47.960;21.712;2023-02-08T10:09:40;33.50;;;17.20;;
63926;SDS011;50103;47.960;21.712;2023-02-08T10:12:14;32.50;;;15.30;;
63926;SDS011;50103;47.960;21.712;2023-02-08T10:28:45;30.80;;;15.00;;
63926;SDS011;50103;47.960;21.712;2023-02-08T10:31:39;35.00;;;17.50;;
63926;SDS011;50103;47.960;21.712;2023-02-08T10:34:44;33.40;;;15.90;;
63926;SDS011;50103;47.960;21.712;2023-02-08T10:37:24;34.40;;;17.60;;
63926;SDS011;50103;47.960;21.712;2023-02-08T10:39:56;34.00;;;16.10;;
63926;SDS011;50103;47.960;21.712;2023-02-08T10:42:28;33.20;;;16.30;;
63926;SDS011;50103;47.960;21.712;2023-02-08T10:45:00;32.10;;;13.90;;
63926;SDS011;50103;47.960;21.712;2023-02-08T10:50:39;29.70;;;13.60;;
63926;SDS011;50103;47.960;21.712;2023-02-08T10:53:15;29.80;;;13.10;;
63926;SDS011;50103;47.960;21.712;2023-02-08T10:55:44;29.60;;;13.00;;
63926;SDS011;50103;47.960;21.712;2023-02-08T10:58:15;28.00;;;12.50;;
63926;SDS011;50103;47.960;21.712;2023-02-08T11:00:43;29.70;;;13.40;;
63926;SDS011;50103;47.960;21.712;2023-02-08T11:03:22;29.30;;;13.50;;
63926;SDS011;50103;47.960;21.712;2023-02-08T11:05:50;30.20;;;14.20;;
63926;SDS011;50103;47.960;21.712;2023-02-08T11:08:26;30.30;;;14.30;;
63926;SDS011;50103;47.960;21.712;2023-02-08T11:13:40;30.00;;;14.40;;
63926;SDS011;50103;47.960;21.712;2023-02-08T11:16:09;31.60;;;13.50;;
63926;SDS011;50103;47.960;21.712;2023-02-08T11:18:46;30.30;;;13.30;;
63926;SDS011;50103;47.960;21.712;2023-02-08T11:23:57;30.90;;;14.70;;
63926;SDS011;50103;47.960;21.712;2023-02-08T11:26:32;31.80;;;15.80;;
63926;SDS011;50103;47.960;21.712;2023-02-08T11:31:28;34.00;;;17.70;;
63926;SDS011;50103;47.960;21.712;2023-02-08T11:33:57;31.80;;;15.80;;
63926;SDS011;50103;47.960;21.712;2023-02-08T11:36:36;34.20;;;16.00;;
63926;SDS011;50103;47.960;21.712;2023-02-08T11:39:43;30.80;;;13.90;;
63926;SDS011;50103;47.960;21.712;2023-02-08T11:42:27;30.20;;;13.30;;
63926;SDS011;50103;47.960;21.712;2023-02-08T11:44:57;31.90;;;14.00;;
63926;SDS011;50103;47.960;21.712;2023-02-08T11:47:27;30.90;;;15.40;;
63926;SDS011;50103;47.960;21.712;2023-02-08T11:49:57;32.20;;;15.10;;
63926;SDS011;50103;47.960;21.712;2023-02-08T11:55:13;35.10;;;14.50;;
63926;SDS011;50103;47.960;21.712;2023-02-08T11:58:05;36.40;;;16.60;;
63926;SDS011;50103;47.960;21.712;2023-02-08T12:00:56;33.30;;;15.20;;
63926;SDS011;50103;47.960;21.712;2023-02-08T12:03:27;32.30;;;14.70;;
63926;SDS011;50103;47.960;21.712;2023-02-08T12:06:02;31.80;;;14.60;;
63926;SDS011;50103;47.960;21.712;2023-02-08T12:11:27;31.10;;;14.00;;
63926;SDS011;50103;47.960;21.712;2023-02-08T12:14:15;31.40;;;14.90;;
63926;SDS011;50103;47.960;21.712;2023-02-08T12:17:14;31.60;;;14.30;;
63926;SDS011;50103;47.960;21.712;2023-02-08T12:22:41;32.70;;;15.70;;
63926;SDS011;50103;47.960;21.712;2023-02-08T12:25:29;33.60;;;15.20;;
63926;SDS011;50103;47.960;21.712;2023-02-08T12:31:56;31.80;;;14.90;;
63926;SDS011;50103;47.960;21.712;2023-02-08T12:40:34;32.90;;;13.10;;
63926;SDS011;50103;47.960;21.712;2023-02-08T12:49:27;26.90;;;10.90;;
63926;SDS011;50103;47.960;21.712;2023-02-08T12:55:14;29.80;;;12.00;;
63926;SDS011;50103;47.960;21.712;2023-02-08T12:57:46;29.90;;;11.80;;
63926;SDS011;50103;47.960;21.712;2023-02-08T13:03:00;30.50;;;12.60;;
63926;SDS011;50103;47.960;21.712;2023-02-08T13:05:30;31.00;;;13.00;;
63926;SDS011;50103;47.960;21.712;2023-02-08T13:11:05;32.20;;;13.80;;
63926;SDS011;50103;47.960;21.712;2023-02-08T13:13:39;29.00;;;12.60;;
63926;SDS011;50103;47.960;21.712;2023-02-08T13:16:09;28.50;;;11.60;;
63926;SDS011;50103;47.960;21.712;2023-02-08T13:18:54;31.90;;;12.60;;
63926;SDS011;50103;47.960;21.712;2023-02-08T13:21:35;31.30;;;12.90;;
63926;SDS011;50103;47.960;21.712;2023-02-08T13:26:52;28.50;;;12.10;;
63926;SDS011;50103;47.960;21.712;2023-02-08T13:29:21;45.90;;;15.80;;
63926;SDS011;50103;47.960;21.712;2023-02-08T13:31:59;30.70;;;13.30;;
63926;SDS011;50103;47.960;21.712;2023-02-08T13:34:41;33.60;;;15.40;;
63926;SDS011;50103;47.960;21.712;2023-02-08T13:37:23;32.70;;;14.00;;
63926;SDS011;50103;47.960;21.712;2023-02-08T13:43:04;31.90;;;13.60;;
63926;SDS011;50103;47.960;21.712;2023-02-08T13:45:35;31.60;;;13.80;;
63926;SDS011;50103;47.960;21.712;2023-02-08T13:48:09;33.60;;;13.10;;
63926;SDS011;50103;47.960;21.712;2023-02-08T13:50:51;32.00;;;14.60;;
63926;SDS011;50103;47.960;21.712;2023-02-08T13:54:04;33.50;;;14.50;;
63926;SDS011;50103;47.960;21.712;2023-02-08T13:56:13;34.70;;;15.10;;
63926;SDS011;50103;47.960;21.712;2023-02-08T13:58:59;32.90;;;13.80;;
63926;SDS011;50103;47.960;21.712;2023-02-08T14:01:27;28.70;;;12.40;;
63926;SDS011;50103;47.960;21.712;2023-02-08T14:06:36;28.40;;;11.70;;
63926;SDS011;50103;47.960;21.712;2023-02-08T14:09:23;32.00;;;12.20;;
63926;SDS011;50103;47.960;21.712;2023-02-08T14:11:59;32.10;;;13.50;;
63926;SDS011;50103;47.960;21.712;2023-02-08T14:14:30;32.00;;;12.50;;
63926;SDS011;50103;47.960;21.712;2023-02-08T14:19:32;26.10;;;10.80;;
63926;SDS011;50103;47.960;21.712;2023-02-08T14:25:14;28.50;;;10.70;;
63926;SDS011;50103;47.960;21.712;2023-02-08T14:27:56;26.70;;;11.20;;
63926;SDS011;50103;47.960;21.712;2023-02-08T14:30:31;27.00;;;11.00;;
63926;SDS011;50103;47.960;21.712;2023-02-08T14:33:09;26.60;;;10.40;;
63926;SDS011;50103;47.960;21.712;2023-02-08T14:35:49;30.30;;;11.50;;
63926;SDS011;50103;47.960;21.712;2023-02-08T14:38:33;28.30;;;11.70;;
63926;SDS011;50103;47.960;21.712;2023-02-08T14:41:29;29.60;;;12.00;;
63926;SDS011;50103;47.960;21.712;2023-02-08T14:47:03;26.90;;;11.50;;
63926;SDS011;50103;47.960;21.712;2023-02-08T14:50:12;28.00;;;12.00;;
63926;SDS011;50103;47.960;21.712;2023-02-08T14:52:45;28.50;;;11.20;;
63926;SDS011;50103;47.960;21.712;2023-02-08T14:55:31;34.80;;;12.80;;
63926;SDS011;50103;47.960;21.712;2023-02-08T14:58:03;29.30;;;12.30;;
63926;SDS011;50103;47.960;21.712;2023-02-08T15:00:34;33.00;;;13.20;;
63926;SDS011;50103;47.960;21.712;2023-02-08T15:03:03;28.50;;;12.00;;
63926;SDS011;50103;47.960;21.712;2023-02-08T15:05:41;29.20;;;12.30;;
63926;SDS011;50103;47.960;21.712;2023-02-08T15:08:29;29.70;;;11.60;;
63926;SDS011;50103;47.960;21.712;2023-02-08T15:10:55;32.60;;;13.80;;
63926;SDS011;50103;47.960;21.712;2023-02-08T15:13:22;31.90;;;14.10;;
63926;SDS011;50103;47.960;21.712;2023-02-08T15:15:50;34.60;;;16.00;;
63926;SDS011;50103;47.960;21.712;2023-02-08T15:18:22;36.10;;;16.50;;
63926;SDS011;50103;47.960;21.712;2023-02-08T15:21:00;37.60;;;18.70;;
63926;SDS011;50103;47.960;21.712;2023-02-08T15:23:30;37.00;;;18.20;;
63926;SDS011;50103;47.960;21.712;2023-02-08T15:26:00;38.10;;;19.40;;
63926;SDS011;50103;47.960;21.712;2023-02-08T15:28:30;36.20;;;18.10;;
63926;SDS011;50103;47.960;21.712;2023-02-08T15:31:03;34.00;;;18.00;;
63926;SDS011;50103;47.960;21.712;2023-02-08T15:33:33;38.80;;;18.60;;
63926;SDS011;50103;47.960;21.712;2023-02-08T15:36:04;37.40;;;17.70;;
63926;SDS011;50103;47.960;21.712;2023-02-08T15:38:35;35.60;;;18.30;;
63926;SDS011;50103;47.960;21.712;2023-02-08T15:41:07;37.60;;;19.50;;
63926;SDS011;50103;47.960;21.712;2023-02-08T15:43:38;44.10;;;21.60;;
63926;SDS011;50103;47.960;21.712;2023-02-08T15:46:15;42.10;;;22.50;;
63926;SDS011;50103;47.960;21.712;2023-02-08T15:48:45;60.50;;;33.30;;
63926;SDS011;50103;47.960;21.712;2023-02-08T15:51:12;59.80;;;32.80;;
63926;SDS011;50103;47.960;21.712;2023-02-08T15:53:42;56.40;;;28.50;;
63926;SDS011;50103;47.960;21.712;2023-02-08T15:56:09;51.10;;;27.40;;
63926;SDS011;50103;47.960;21.712;2023-02-08T15:58:47;49.50;;;26.30;;
63926;SDS011;50103;47.960;21.712;2023-02-08T16:01:16;48.20;;;25.10;;
63926;SDS011;50103;47.960;21.712;2023-02-08T16:03:47;43.80;;;23.30;;
63926;SDS011;50103;47.960;21.712;2023-02-08T16:06:19;41.10;;;20.90;;
63926;SDS011;50103;47.960;21.712;2023-02-08T16:08:48;39.00;;;20.70;;
63926;SDS011;50103;47.960;21.712;2023-02-08T16:11:20;41.70;;;20.80;;
63926;SDS011;50103;47.960;21.712;2023-02-08T16:13:50;44.30;;;22.20;;
63926;SDS011;50103;47.960;21.712;2023-02-08T16:19:04;40.10;;;21.80;;
63926;SDS011;50103;47.960;21.712;2023-02-08T16:21:43;40.20;;;21.50;;
63926;SDS011;50103;47.960;21.712;2023-02-08T16:29:26;40.50;;;23.30;;
63926;SDS011;50103;47.960;21.712;2023-02-08T16:31:56;52.20;;;28.40;;
63926;SDS011;50103;47.960;21.712;2023-02-08T16:34:28;50.90;;;27.10;;
63926;SDS011;50103;47.960;21.712;2023-02-08T16:36:56;54.10;;;27.90;;
63926;SDS011;50103;47.960;21.712;2023-02-08T16:42:18;47.60;;;26.40;;
63926;SDS011;50103;47.960;21.712;2023-02-08T16:45:11;45.60;;;22.50;;
63926;SDS011;50103;47.960;21.712;2023-02-08T16:47:49;40.60;;;21.90;;
63926;SDS011;50103;47.960;21.712;2023-02-08T16:50:19;39.20;;;20.10;;
63926;SDS011;50103;47.960;21.712;2023-02-08T16:52:49;44.10;;;22.50;;
63926;SDS011;50103;47.960;21.712;2023-02-08T16:55:27;43.30;;;23.50;;
63926;SDS011;50103;47.960;21.712;2023-02-08T16:57:57;43.00;;;23.50;;
63926;SDS011;50103;47.960;21.712;2023-02-08T17:02:54;53.10;;;32.70;;
63926;SDS011;50103;47.960;21.712;2023-02-08T17:05:21;54.50;;;31.80;;
63926;SDS011;50103;47.960;21.712;2023-02-08T17:07:49;57.00;;;33.90;;
63926;SDS011;50103;47.960;21.712;2023-02-08T17:12:54;59.90;;;35.50;;
63926;SDS011;50103;47.960;21.712;2023-02-08T17:15:21;54.40;;;33.50;;
63926;SDS011;50103;47.960;21.712;2023-02-08T17:17:52;64.50;;;37.50;;
63926;SDS011;50103;47.960;21.712;2023-02-08T17:20:20;58.10;;;36.40;;
63926;SDS011;50103;47.960;21.712;2023-02-08T17:22:48;88.00;;;51.50;;
63926;SDS011;50103;47.960;21.712;2023-02-08T17:25:15;342.20;;;206.40;;
63926;SDS011;50103;47.960;21.712;2023-02-08T17:27:46;216.60;;;130.00;;
63926;SDS011;50103;47.960;21.712;2023-02-08T17:30:15;91.20;;;56.10;;
63926;SDS011;50103;47.960;21.712;2023-02-08T17:32:44;73.20;;;41.70;;
63926;SDS011;50103;47.960;21.712;2023-02-08T17:35:12;57.90;;;35.10;;
63926;SDS011;50103;47.960;21.712;2023-02-08T17:37:41;64.40;;;36.20;;
63926;SDS011;50103;47.960;21.712;2023-02-08T17:40:11;60.00;;;35.80;;
63926;SDS011;50103;47.960;21.712;2023-02-08T17:42:46;54.10;;;32.90;;
63926;SDS011;50103;47.960;21.712;2023-02-08T17:45:11;57.30;;;34.50;;
63926;SDS011;50103;47.960;21.712;2023-02-08T17:47:38;62.00;;;36.60;;
63926;SDS011;50103;47.960;21.712;2023-02-08T17:50:06;59.80;;;36.70;;
63926;SDS011;50103;47.960;21.712;2023-02-08T17:52:34;57.90;;;35.30;;
63926;SDS011;50103;47.960;21.712;2023-02-08T17:55:00;54.80;;;32.80;;
63926;SDS011;50103;47.960;21.712;2023-02-08T17:57:29;53.00;;;32.20;;
63926;SDS011;50103;47.960;21.712;2023-02-08T17:59:56;55.70;;;30.50;;
63926;SDS011;50103;47.960;21.712;2023-02-08T18:02:21;52.70;;;31.50;;
63926;SDS011;50103;47.960;21.712;2023-02-08T18:04:47;53.10;;;30.90;;
63926;SDS011;50103;47.960;21.712;2023-02-08T18:07:12;51.30;;;30.20;;
63926;SDS011;50103;47.960;21.712;2023-02-08T18:09:38;52.60;;;30.70;;
63926;SDS011;50103;47.960;21.712;2023-02-08T18:12:04;49.30;;;29.80;;
63926;SDS011;50103;47.960;21.712;2023-02-08T18:14:29;53.10;;;30.70;;
63926;SDS011;50103;47.960;21.712;2023-02-08T18:16:56;65.90;;;38.40;;
63926;SDS011;50103;47.960;21.712;2023-02-08T18:19:21;94.40;;;56.50;;
63926;SDS011;50103;47.960;21.712;2023-02-08T18:21:47;91.30;;;57.20;;
63926;SDS011;50103;47.960;21.712;2023-02-08T18:24:12;80.90;;;50.00;;
63926;SDS011;50103;47.960;21.712;2023-02-08T18:26:38;57.20;;;34.20;;
63926;SDS011;50103;47.960;21.712;2023-02-08T18:29:05;52.30;;;31.40;;
63926;SDS011;50103;47.960;21.712;2023-02-08T18:31:31;58.80;;;34.00;;
63926;SDS011;50103;47.960;21.712;2023-02-08T18:33:56;57.70;;;33.10;;
63926;SDS011;50103;47.960;21.712;2023-02-08T18:36:22;54.50;;;32.60;;
63926;SDS011;50103;47.960;21.712;2023-02-08T18:38:49;54.50;;;32.90;;
63926;SDS011;50103;47.960;21.712;2023-02-08T18:41:21;58.50;;;33.10;;
63926;SDS011;50103;47.960;21.712;2023-02-08T18:43:48;61.30;;;33.80;;
63926;SDS011;50103;47.960;21.712;2023-02-08T18:46:17;56.70;;;31.40;;
63926;SDS011;50103;47.960;21.712;2023-02-08T18:48:45;58.50;;;34.50;;
63926;SDS011;50103;47.960;21.712;2023-02-08T18:51:12;74.40;;;47.20;;
63926;SDS011;50103;47.960;21.712;2023-02-08T18:53:44;77.00;;;45.40;;
63926;SDS011;50103;47.960;21.712;2023-02-08T18:56:11;66.80;;;41.00;;
63926;SDS011;50103;47.960;21.712;2023-02-08T18:58:38;66.00;;;40.20;;
63926;SDS011;50103;47.960;21.712;2023-02-08T19:01:11;60.50;;;36.20;;
63926;SDS011;50103;47.960;21.712;2023-02-08T19:03:39;61.80;;;37.70;;
63926;SDS011;50103;47.960;21.712;2023-02-08T19:06:05;63.50;;;39.40;;
63926;SDS011;50103;47.960;21.712;2023-02-08T19:08:36;63.80;;;39.00;;
63926;SDS011;50103;47.960;21.712;2023-02-08T19:11:03;65.60;;;37.00;;
63926;SDS011;50103;47.960;21.712;2023-02-08T19:13:29;65.50;;;37.80;;
63926;SDS011;50103;47.960;21.712;2023-02-08T19:15:56;66.70;;;37.10;;
63926;SDS011;50103;47.960;21.712;2023-02-08T19:18:21;62.30;;;38.80;;
63926;SDS011;50103;47.960;21.712;2023-02-08T19:20:48;65.50;;;40.70;;
63926;SDS011;50103;47.960;21.712;2023-02-08T19:23:13;75.20;;;46.40;;
63926;SDS011;50103;47.960;21.712;2023-02-08T19:25:39;73.90;;;46.60;;
63926;SDS011;50103;47.960;21.712;2023-02-08T19:28:05;74.20;;;47.00;;
63926;SDS011;50103;47.960;21.712;2023-02-08T19:30:31;72.50;;;45.90;;
63926;SDS011;50103;47.960;21.712;2023-02-08T19:32:57;70.40;;;42.40;;
63926;SDS011;50103;47.960;21.712;2023-02-08T19:35:22;71.10;;;44.00;;
63926;SDS011;50103;47.960;21.712;2023-02-08T19:37:48;66.00;;;41.70;;
63926;SDS011;50103;47.960;21.712;2023-02-08T19:40:17;64.40;;;41.10;;
63926;SDS011;50103;47.960;21.712;2023-02-08T19:42:43;66.00;;;42.10;;
63926;SDS011;50103;47.960;21.712;2023-02-08T19:45:12;62.90;;;37.90;;
63926;SDS011;50103;47.960;21.712;2023-02-08T19:47:39;60.40;;;37.70;;
63926;SDS011;50103;47.960;21.712;2023-02-08T19:50:05;68.80;;;41.40;;
63926;SDS011;50103;47.960;21.712;2023-02-08T19:52:31;65.50;;;39.40;;
63926;SDS011;50103;47.960;21.712;2023-02-08T19:54:56;58.10;;;37.40;;
63926;SDS011;50103;47.960;21.712;2023-02-08T19:57:22;57.50;;;33.30;;
63926;SDS011;50103;47.960;21.712;2023-02-08T19:59:49;55.30;;;34.20;;
